Glacier Park International Airport
KGPI : now visible

Airfield :











YOU CAN JOIN US ON...

 
LOGIN :

Register | Disclaimer

   EN    FR    IT 

 









Legend :    VFR   Marginal VFR   IFR   Intensive IFR   Very Intensive IFR
Visi :
Ceiling :
>= 8 km
>= 3000ft
5 to 8 km
1000 to 3000 ft
1500m to 5 km
500 to 1000 ft
800 to 1500m
200 to 500 ft
< 800m
< 200 ft
Symbols :   Thunderstorms  Fog  Heavy snow  Heavy precipitations  Wind > 20 kt







- Airport Elevation : 2977 ft
- IATA code : FCA


KGPI - Glacier Park International

CURRENT METAR :
  • 200755Z AUTO 05010KT 10SM OVC075 09/M05 A2985 RMK AO2 SLP111 T00891050

EXPIRED METARs :
  • 200655Z AUTO 05010KT 10SM BKN080 09/M04 A2987 RMK AO2 SLP115 T00891044 401280044
  • 200555Z 09003KT 10SM OVC080 09/M03 A2988 RMK AO2 SLP120 T00891033 10122 20089 50004

TAF KGPI
Valid from the 20 at 06:00 until the 21 at 06:00 UTC


200527Z 2006/2106 02011G18KT P6SM BKN080
FM201900 03015G25KT P6SM BKN070
KZLC FIR / North America



MET'MAP, your aeronautical weather chart ! - Copyright ORBIFLY December 2007 - Disclaimer

ORBIFLY MET'MAP TEAM :

Programming & Development : Alexandra Zaïnal
Concept & Development : Baudouin d'Aumeries
Co-Development & Prog : Marc-Olivier Méhu
Technical & hardware support : Manuel Goepfert

Contact : metmap@orbifly.com




SOURCES & CREDITS :

   NOAA       Earth
Advisory